createdAt,value
2018-07-31T00:00:59.598Z,62.52
2018-07-31T00:01:59.585Z,62.33
2018-07-31T00:02:59.574Z,62.13
2018-07-31T00:03:59.577Z,61.46
2018-07-31T00:04:59.556Z,62.04
2018-07-31T00:05:59.546Z,61.26
2018-07-31T00:06:59.537Z,60.97
2018-07-31T00:07:59.532Z,61.17
2018-07-31T00:08:59.513Z,60.68
2018-07-31T00:09:59.543Z,60.20
2018-07-31T00:10:59.498Z,60.49
2018-07-31T00:11:59.483Z,60.49
2018-07-31T00:12:59.481Z,60.88
2018-07-31T00:13:59.462Z,60.97
2018-07-31T00:14:59.450Z,60.88
2018-07-31T00:15:59.443Z,60.30
2018-07-31T00:16:59.430Z,60.68
2018-07-31T00:17:59.421Z,60.97
2018-07-31T00:18:59.421Z,60.88
2018-07-31T00:19:59.399Z,60.88
2018-07-31T00:20:59.388Z,60.97
2018-07-31T00:21:59.381Z,60.97
2018-07-31T00:22:59.377Z,61.65
2018-07-31T00:23:59.359Z,62.13
2018-07-31T00:24:59.352Z,62.23
2018-07-31T00:26:43.464Z,62.82
2018-07-31T00:27:43.458Z,63.20
2018-07-31T00:28:43.449Z,63.01
2018-07-31T00:29:43.431Z,63.78
2018-07-31T00:30:43.429Z,63.59
2018-07-31T00:31:43.416Z,63.78
2018-07-31T00:32:43.568Z,64.56
2018-07-31T00:33:43.388Z,64.85
2018-07-31T00:34:43.387Z,65.01
2018-07-31T00:35:43.372Z,65.69
2018-07-31T00:36:43.359Z,65.50
2018-07-31T00:37:43.350Z,65.24
2018-07-31T00:38:43.336Z,65.79
2018-07-31T00:39:43.323Z,65.98
2018-07-31T00:40:43.314Z,66.17
2018-07-31T00:41:43.304Z,66.56
2018-07-31T00:42:43.292Z,66.17
2018-07-31T00:43:43.286Z,66.85
2018-07-31T00:44:43.269Z,66.85
2018-07-31T00:45:43.261Z,66.95
2018-07-31T00:46:43.277Z,66.75
2018-07-31T00:47:43.240Z,67.34
2018-07-31T00:48:43.229Z,67.34
2018-07-31T00:49:43.217Z,67.05
2018-07-31T00:50:43.205Z,67.53
2018-07-31T00:51:43.202Z,67.44
2018-07-31T00:52:43.183Z,68.21
2018-07-31T00:53:43.175Z,67.82
2018-07-31T00:54:43.164Z,68.02
2018-07-31T00:55:43.151Z,68.50
2018-07-31T00:56:43.144Z,68.40
2018-07-31T00:57:43.146Z,68.70
2018-07-31T00:58:43.131Z,68.50
2018-07-31T00:59:43.107Z,68.89
2018-07-31T01:00:43.099Z,69.34
2018-07-31T01:01:43.089Z,69.24
2018-07-31T01:02:43.088Z,69.37
2018-07-31T01:03:43.064Z,69.34
2018-07-31T01:04:43.055Z,70.01
2018-07-31T01:05:43.051Z,70.11
2018-07-31T01:06:43.040Z,70.01
2018-07-31T01:07:46.660Z,70.21
2018-07-31T01:08:43.010Z,70.50
2018-07-31T01:09:46.635Z,70.70
2018-07-31T01:10:42.999Z,70.89
2018-07-31T01:12:42.441Z,71.37
2018-07-31T01:13:42.418Z,71.37
2018-07-31T01:14:42.406Z,71.37
2018-07-31T01:15:42.395Z,71.37
2018-07-31T01:16:42.387Z,71.47
2018-07-31T01:17:42.372Z,71.95
2018-07-31T01:18:42.365Z,71.08
2018-07-31T01:19:42.350Z,71.76
2018-07-31T01:20:42.341Z,71.56
2018-07-31T01:21:42.331Z,71.76
2018-07-31T01:22:42.320Z,71.47
2018-07-31T01:23:42.309Z,72.11
2018-07-31T01:24:42.296Z,72.53
2018-07-31T01:25:42.283Z,72.73
2018-07-31T01:26:42.273Z,72.83
2018-07-31T01:27:42.344Z,72.83
2018-07-31T01:29:15.461Z,73.02
2018-07-31T01:29:42.240Z,73.02
2018-07-31T01:30:42.232Z,72.98
2018-07-31T01:31:42.218Z,73.37
2018-07-31T01:32:42.208Z,73.37
2018-07-31T01:33:42.200Z,73.85
2018-07-31T01:34:42.183Z,73.95
2018-07-31T01:35:42.172Z,74.34
2018-07-31T01:36:42.164Z,74.43
2018-07-31T01:37:42.151Z,75.02
2018-07-31T01:38:44.762Z,75.21
2018-07-31T01:39:42.128Z,75.31
2018-07-31T01:40:42.120Z,75.21
2018-07-31T01:41:42.106Z,75.21
2018-07-31T01:42:42.093Z,75.21
2018-07-31T01:43:42.084Z,75.89
2018-07-31T01:44:42.071Z,75.70
2018-07-31T01:45:42.082Z,76.66
2018-07-31T01:46:42.049Z,76.28
2018-07-31T01:47:42.041Z,76.82
2018-07-31T01:48:42.030Z,76.62
2018-07-31T01:49:42.017Z,76.95
2018-07-31T01:50:42.008Z,76.82
2018-07-31T01:51:41.995Z,77.73
2018-07-31T01:52:41.992Z,77.63
2018-07-31T01:53:41.971Z,77.40
2018-07-31T01:54:41.970Z,78.02
2018-07-31T01:55:41.947Z,77.98
2018-07-31T01:56:41.938Z,78.56
2018-07-31T01:57:41.932Z,78.66
2018-07-31T01:58:41.915Z,78.56
2018-07-31T01:59:41.944Z,78.94
2018-07-31T02:00:41.897Z,79.14
2018-07-31T02:01:41.884Z,79.62
2018-07-31T02:02:41.870Z,80.01
2018-07-31T02:03:41.857Z,79.82
2018-07-31T02:04:41.847Z,79.62
2018-07-31T02:05:41.839Z,80.20
2018-07-31T02:06:41.826Z,80.11
2018-07-31T02:07:41.966Z,80.59
2018-07-31T02:08:41.832Z,80.98
2018-07-31T02:09:41.791Z,80.79
2018-07-31T02:10:41.779Z,80.69
2018-07-31T02:11:45.023Z,80.69
2018-07-31T02:12:41.754Z,81.46
2018-07-31T02:13:41.750Z,81.17
2018-07-31T02:14:41.732Z,81.46
2018-07-31T02:15:41.726Z,81.56
2018-07-31T02:16:44.331Z,81.52
2018-07-31T02:17:41.706Z,82.04
2018-07-31T02:18:41.697Z,81.46
2018-07-31T02:19:41.673Z,81.32
2018-07-31T02:20:41.662Z,82.00
2018-07-31T02:21:41.657Z,82.14
2018-07-31T02:22:41.644Z,82.29
2018-07-31T02:23:41.779Z,82.68
2018-07-31T02:24:41.617Z,82.87
2018-07-31T02:25:41.608Z,82.97
2018-07-31T02:26:41.627Z,82.87
2018-07-31T02:27:41.600Z,82.78
2018-07-31T02:28:41.605Z,83.36
2018-07-31T02:29:41.563Z,83.26
2018-07-31T02:30:41.554Z,83.26
2018-07-31T02:31:41.537Z,83.06
2018-07-31T02:32:41.524Z,83.06
2018-07-31T02:33:41.512Z,83.55
2018-07-31T02:34:41.503Z,84.22
2018-07-31T02:35:41.490Z,83.64
2018-07-31T02:36:41.480Z,83.74
2018-07-31T02:37:41.470Z,84.32
2018-07-31T02:38:41.467Z,83.94
2018-07-31T02:39:41.443Z,83.84
2018-07-31T02:40:41.430Z,84.03
2018-07-31T02:41:41.425Z,84.52
2018-07-31T02:42:41.406Z,84.42
2018-07-31T02:43:41.395Z,84.38
2018-07-31T02:44:41.385Z,85.25
2018-07-31T02:45:41.373Z,85.44
2018-07-31T02:46:41.361Z,85.73
2018-07-31T02:47:41.435Z,86.02
2018-07-31T02:48:41.340Z,85.87
2018-07-31T02:49:41.331Z,85.73
2018-07-31T02:50:41.316Z,86.21
2018-07-31T02:51:41.304Z,86.41
2018-07-31T02:52:41.293Z,86.31
2018-07-31T02:53:41.289Z,86.02
2018-07-31T02:54:41.269Z,86.60
2018-07-31T02:55:41.260Z,86.31
2018-07-31T02:57:35.389Z,87.08
2018-07-31T02:58:35.377Z,87.08
2018-07-31T02:59:35.361Z,87.27
2018-07-31T03:00:35.362Z,87.47
2018-07-31T03:01:35.346Z,87.08
2018-07-31T03:02:35.327Z,88.05
2018-07-31T03:03:35.338Z,88.34
2018-07-31T03:04:35.305Z,88.82
2018-07-31T03:05:35.299Z,88.92
2018-07-31T03:06:35.281Z,88.73
2018-07-31T03:07:35.268Z,89.01
2018-07-31T03:08:35.262Z,89.45
2018-07-31T03:09:35.248Z,88.97
2018-07-31T03:10:35.234Z,89.31
2018-07-31T03:11:35.224Z,89.50
2018-07-31T03:12:35.212Z,89.65
2018-07-31T03:13:35.198Z,89.36
2018-07-31T03:14:35.188Z,89.55
2018-07-31T03:15:35.172Z,89.65
2018-07-31T03:16:35.199Z,90.13
2018-07-31T03:17:35.149Z,90.13
2018-07-31T03:18:35.145Z,90.13
2018-07-31T03:19:35.164Z,90.56
2018-07-31T03:20:35.124Z,90.91
2018-07-31T03:21:35.111Z,91.19
2018-07-31T03:22:35.097Z,91.09
2018-07-31T03:23:35.090Z,91.19
2018-07-31T03:24:35.069Z,91.49
2018-07-31T03:25:35.059Z,91.49
2018-07-31T03:26:35.046Z,91.97
2018-07-31T03:27:35.036Z,92.16
2018-07-31T03:28:35.021Z,91.77
2018-07-31T03:29:35.016Z,91.97
2018-07-31T03:30:35.008Z,91.87
2018-07-31T03:31:34.986Z,91.97
2018-07-31T03:33:08.186Z,92.55
2018-07-31T03:33:34.960Z,92.65
2018-07-31T03:34:34.949Z,92.55
2018-07-31T03:35:34.938Z,92.45
2018-07-31T03:36:34.926Z,92.07
2018-07-31T03:37:34.915Z,92.45
2018-07-31T03:38:34.902Z,92.74
2018-07-31T03:39:34.888Z,92.74
2018-07-31T03:40:35.047Z,92.45
2018-07-31T03:42:08.075Z,93.03
2018-07-31T03:42:38.284Z,93.51
2018-07-31T03:43:34.910Z,93.37
2018-07-31T03:44:34.834Z,93.03
2018-07-31T03:45:34.821Z,93.51
2018-07-31T03:46:34.807Z,93.56
2018-07-31T03:47:34.795Z,93.76
2018-07-31T03:48:34.785Z,93.08
2018-07-31T03:49:34.769Z,93.41
2018-07-31T03:50:34.756Z,93.56
2018-07-31T03:51:34.744Z,92.93
2018-07-31T03:52:34.733Z,93.13
2018-07-31T03:53:34.724Z,92.74
2018-07-31T03:54:34.713Z,93.27
2018-07-31T03:55:34.739Z,93.08
2018-07-31T03:56:34.803Z,93.13
2018-07-31T03:57:34.673Z,93.95
2018-07-31T03:58:34.658Z,93.99
2018-07-31T04:00:07.857Z,93.61
2018-07-31T04:00:34.631Z,93.56
2018-07-31T04:01:34.624Z,93.66
2018-07-31T04:02:34.611Z,93.76
2018-07-31T04:03:34.602Z,93.37
2018-07-31T04:04:34.600Z,93.18
2018-07-31T04:05:34.643Z,93.37
2018-07-31T04:06:34.564Z,93.23
2018-07-31T04:07:34.552Z,93.56
2018-07-31T04:08:34.541Z,93.47
2018-07-31T04:09:34.525Z,93.56
2018-07-31T04:10:34.512Z,93.03
2018-07-31T04:11:34.509Z,93.99
2018-07-31T04:12:34.517Z,93.47
2018-07-31T04:13:34.481Z,93.76
2018-07-31T04:14:34.466Z,93.18
2018-07-31T04:15:34.459Z,93.56
2018-07-31T04:16:34.443Z,93.61
2018-07-31T04:17:34.430Z,93.61
2018-07-31T04:18:34.437Z,93.41
2018-07-31T04:19:34.406Z,93.56
2018-07-31T04:20:34.396Z,93.66
2018-07-31T04:21:34.379Z,93.56
2018-07-31T04:22:34.369Z,93.66
2018-07-31T04:23:34.356Z,94.34
2018-07-31T04:24:34.352Z,93.76
2018-07-31T04:25:34.335Z,94.09
2018-07-31T04:26:34.322Z,93.61
2018-07-31T04:27:34.309Z,92.93
2018-07-31T04:28:34.299Z,92.83
2018-07-31T04:29:34.283Z,93.32
2018-07-31T04:30:34.274Z,93.23
2018-07-31T04:31:34.261Z,93.03
2018-07-31T04:32:34.259Z,92.93
2018-07-31T04:33:34.236Z,92.45
2018-07-31T04:34:34.228Z,91.97
2018-07-31T04:35:34.215Z,91.77
2018-07-31T04:36:34.221Z,92.07
2018-07-31T04:37:34.188Z,91.87
2018-07-31T04:38:34.177Z,92.25
2018-07-31T04:39:34.169Z,92.45
2018-07-31T04:40:34.153Z,91.77
2018-07-31T04:41:34.142Z,92.25
2018-07-31T04:42:34.130Z,92.07
2018-07-31T04:43:34.118Z,91.87
2018-07-31T04:44:34.110Z,91.97
2018-07-31T04:45:34.092Z,92.07
2018-07-31T04:46:34.079Z,92.07
2018-07-31T04:47:34.070Z,91.87
2018-07-31T04:48:34.056Z,91.77
2018-07-31T04:49:34.046Z,91.58
2018-07-31T04:50:34.036Z,92.07
2018-07-31T04:51:34.030Z,91.29
2018-07-31T04:52:34.139Z,91.87
2018-07-31T04:53:33.997Z,91.97
2018-07-31T04:54:33.986Z,91.58
2018-07-31T04:55:33.986Z,91.39
2018-07-31T04:56:33.965Z,91.00
2018-07-31T04:57:33.957Z,90.52
2018-07-31T04:58:33.938Z,90.61
2018-07-31T04:59:33.927Z,90.17
2018-07-31T05:00:33.914Z,90.23
2018-07-31T05:01:33.903Z,89.98
2018-07-31T05:02:33.894Z,89.79
2018-07-31T05:03:33.879Z,90.13
2018-07-31T05:04:33.874Z,90.13
2018-07-31T05:05:33.860Z,90.33
2018-07-31T05:06:33.844Z,90.17
2018-07-31T05:07:33.834Z,89.75
2018-07-31T05:08:33.930Z,89.94
2018-07-31T05:09:33.811Z,90.13
2018-07-31T05:10:33.796Z,90.13
2018-07-31T05:11:33.784Z,90.33
2018-07-31T05:12:33.783Z,89.79
2018-07-31T05:13:33.774Z,89.31
2018-07-31T05:14:33.751Z,88.73
2018-07-31T05:15:33.741Z,88.48
2018-07-31T05:16:33.726Z,87.95
2018-07-31T05:17:33.717Z,88.09
2018-07-31T05:18:33.703Z,87.99
2018-07-31T05:19:33.743Z,87.81
2018-07-31T05:20:33.680Z,87.61
2018-07-31T05:21:33.670Z,87.32
2018-07-31T05:22:33.657Z,87.32
2018-07-31T05:23:33.645Z,86.78
2018-07-31T05:24:33.633Z,86.20
2018-07-31T05:25:33.623Z,86.59
2018-07-31T05:26:33.620Z,85.91
2018-07-31T05:27:33.598Z,85.91
2018-07-31T05:28:33.592Z,86.16
2018-07-31T05:29:33.577Z,86.55
2018-07-31T05:30:33.567Z,86.74
2018-07-31T05:31:33.556Z,86.16
2018-07-31T05:32:33.573Z,86.49
2018-07-31T05:33:33.535Z,85.72
2018-07-31T05:34:33.520Z,85.91
2018-07-31T05:35:33.562Z,85.52
2018-07-31T05:36:33.501Z,85.33
2018-07-31T05:37:33.486Z,84.31
2018-07-31T05:38:33.476Z,81.77
2018-07-31T05:39:33.500Z,77.92
2018-07-31T05:40:33.453Z,74.30
2018-07-31T05:41:33.443Z,71.72
2018-07-31T05:42:33.449Z,70.68
2018-07-31T05:43:33.419Z,68.77
2018-07-31T05:44:33.410Z,67.86
2018-07-31T05:45:33.400Z,66.05
2018-07-31T05:46:33.393Z,64.81
2018-07-31T05:47:33.388Z,62.53
2018-07-31T05:48:33.514Z,61.82
2018-07-31T05:49:33.370Z,61.85
2018-07-31T05:50:33.352Z,60.97
2018-07-31T05:51:33.388Z,60.58
2018-07-31T05:52:33.333Z,60.13
2018-07-31T05:53:33.326Z,60.88
2018-07-31T05:54:33.320Z,60.22
2018-07-31T05:55:33.309Z,60.22
2018-07-31T05:56:33.301Z,60.29
2018-07-31T05:57:33.378Z,59.83
2018-07-31T05:58:33.288Z,60.00
2018-07-31T05:59:33.281Z,60.03
2018-07-31T06:00:33.271Z,59.54
2018-07-31T06:01:33.268Z,59.44
2018-07-31T06:02:33.276Z,59.90
2018-07-31T06:03:33.302Z,58.59
2018-07-31T06:04:33.310Z,57.28
2018-07-31T06:05:33.240Z,56.70
2018-07-31T06:06:33.254Z,56.40
2018-07-31T06:07:33.228Z,56.43
2018-07-31T06:08:33.233Z,55.47
2018-07-31T06:09:33.384Z,54.40
2018-07-31T06:10:33.213Z,54.89
2018-07-31T06:11:33.610Z,54.89
2018-07-31T06:12:33.214Z,54.33
2018-07-31T06:13:33.197Z,53.74
2018-07-31T06:14:33.206Z,53.38
2018-07-31T06:15:33.197Z,52.62
2018-07-31T06:16:33.182Z,51.83
2018-07-31T06:17:33.181Z,51.27
2018-07-31T06:18:33.175Z,51.37
2018-07-31T06:19:33.176Z,52.33
2018-07-31T06:20:33.172Z,52.10
2018-07-31T06:21:33.165Z,53.38
2018-07-31T06:22:33.280Z,52.33
2018-07-31T06:23:33.160Z,51.96
2018-07-31T06:24:33.160Z,51.64
2018-07-31T06:25:33.244Z,53.25
2018-07-31T06:26:33.157Z,53.47
2018-07-31T06:27:33.156Z,53.45
2018-07-31T06:28:33.147Z,53.28
2018-07-31T06:29:33.163Z,52.79
2018-07-31T06:30:33.144Z,52.40
2018-07-31T06:31:33.140Z,52.59
2018-07-31T06:32:33.138Z,52.79
2018-07-31T06:33:33.138Z,52.59
2018-07-31T06:34:33.135Z,51.83
2018-07-31T06:35:33.140Z,51.07
2018-07-31T06:36:33.141Z,50.98
2018-07-31T06:37:33.133Z,51.54
2018-07-31T06:38:33.133Z,52.00
2018-07-31T06:39:33.131Z,52.33
2018-07-31T06:40:33.189Z,52.50
2018-07-31T06:41:33.136Z,51.93
2018-07-31T06:42:33.128Z,50.85
2018-07-31T06:43:33.211Z,51.25
2018-07-31T06:44:33.125Z,52.00
2018-07-31T06:45:33.125Z,52.76
2018-07-31T06:46:33.125Z,54.17
2018-07-31T06:47:33.123Z,55.13
2018-07-31T06:48:33.123Z,56.27
2018-07-31T06:49:33.126Z,57.13
2018-07-31T06:50:33.125Z,58.44
2018-07-31T06:51:33.205Z,59.22
2018-07-31T06:52:33.122Z,59.61
2018-07-31T06:53:33.121Z,60.16
2018-07-31T06:54:33.122Z,60.65
2018-07-31T06:55:33.119Z,60.39
2018-07-31T06:56:33.124Z,60.10
2018-07-31T06:57:33.122Z,59.54
2018-07-31T06:58:33.120Z,58.66
2018-07-31T06:59:33.120Z,58.01
2018-07-31T07:00:33.120Z,57.52
2018-07-31T07:01:33.120Z,57.32
2018-07-31T07:02:33.115Z,57.62
2018-07-31T07:03:33.124Z,57.42
2018-07-31T07:04:33.118Z,57.78
2018-07-31T07:05:33.113Z,59.51
2018-07-31T07:06:33.112Z,60.26
2018-07-31T07:07:33.112Z,60.19
2018-07-31T07:08:33.109Z,59.51
2018-07-31T07:09:33.110Z,59.80
2018-07-31T07:10:33.109Z,58.76
2018-07-31T07:11:33.108Z,59.70
2018-07-31T07:12:33.143Z,59.70
2018-07-31T07:13:33.110Z,59.70
2018-07-31T07:14:33.101Z,59.51
2018-07-31T07:15:33.145Z,59.80
2018-07-31T07:16:33.101Z,60.46
2018-07-31T07:17:33.093Z,60.75
2018-07-31T07:18:33.096Z,60.62
2018-07-31T07:19:33.089Z,60.65
2018-07-31T07:20:33.087Z,59.51
2018-07-31T07:21:33.084Z,59.54
2018-07-31T07:22:33.095Z,59.05
2018-07-31T07:23:33.087Z,57.81
2018-07-31T07:24:33.076Z,57.15
2018-07-31T07:25:33.076Z,56.60
2018-07-31T07:26:33.078Z,55.91
2018-07-31T07:27:33.071Z,56.37
2018-07-31T07:28:33.067Z,57.03
2018-07-31T07:29:33.065Z,58.07
2018-07-31T07:30:33.063Z,58.17
2018-07-31T07:31:33.060Z,57.95
2018-07-31T07:32:33.065Z,59.31
2018-07-31T07:33:33.096Z,59.87
2018-07-31T07:34:33.057Z,60.65
2018-07-31T07:35:33.246Z,59.51
2018-07-31T07:36:33.045Z,58.66
2018-07-31T07:37:33.043Z,58.53
2018-07-31T07:38:33.096Z,58.53
2018-07-31T07:39:33.040Z,59.28
2018-07-31T07:40:33.036Z,60.52
2018-07-31T07:41:33.042Z,61.01
2018-07-31T07:42:33.027Z,60.62
2018-07-31T07:43:33.026Z,60.23
2018-07-31T07:44:33.034Z,60.82
2018-07-31T07:45:33.017Z,59.97
2018-07-31T07:46:33.014Z,59.51
2018-07-31T07:47:33.007Z,59.15
2018-07-31T07:48:33.042Z,58.47
2018-07-31T07:49:33.011Z,58.01
2018-07-31T07:50:33.004Z,57.42
2018-07-31T07:51:33.000Z,57.13
2018-07-31T07:52:32.988Z,58.66
2018-07-31T07:53:32.987Z,58.37
2018-07-31T07:54:32.983Z,58.56
2018-07-31T07:55:32.978Z,58.47
2018-07-31T07:56:32.978Z,58.44
2018-07-31T07:57:32.972Z,59.61
2018-07-31T07:58:32.975Z,59.38
2018-07-31T07:59:32.963Z,60.42
2018-07-31T08:00:32.969Z,60.98
2018-07-31T08:01:32.958Z,62.25
2018-07-31T08:02:32.951Z,61.11
2018-07-31T08:03:32.947Z,60.52
2018-07-31T08:04:32.945Z,60.75
2018-07-31T08:05:32.942Z,60.06
2018-07-31T08:06:32.941Z,60.10
2018-07-31T08:07:32.932Z,59.61
2018-07-31T08:08:33.243Z,59.22
2018-07-31T08:09:33.012Z,59.70
2018-07-31T08:10:32.920Z,59.38
2018-07-31T08:11:32.913Z,59.87
2018-07-31T08:12:32.969Z,60.13
2018-07-31T08:13:32.904Z,60.16
2018-07-31T08:14:32.900Z,59.58
2018-07-31T08:15:32.896Z,59.67
2018-07-31T08:16:32.890Z,58.83
2018-07-31T08:17:32.897Z,58.99
2018-07-31T08:18:32.882Z,58.48
2018-07-31T08:19:32.886Z,58.67
2018-07-31T08:20:32.880Z,59.55
2018-07-31T08:21:32.870Z,60.10
2018-07-31T08:22:32.917Z,60.78
2018-07-31T08:23:32.860Z,60.20
2018-07-31T08:24:32.857Z,60.23
2018-07-31T08:25:32.898Z,60.03
2018-07-31T08:26:32.903Z,60.42
2018-07-31T08:27:32.842Z,60.78
2018-07-31T08:28:32.839Z,60.20
2018-07-31T08:30:32.828Z,61.05
2018-07-31T08:31:32.829Z,61.15
2018-07-31T08:32:32.817Z,60.95
2018-07-31T08:33:32.864Z,60.95
2018-07-31T08:34:32.824Z,60.42
2018-07-31T08:35:32.800Z,60.23
2018-07-31T08:36:32.800Z,59.45
2018-07-31T08:37:32.791Z,58.53
2018-07-31T08:38:32.787Z,58.14
2018-07-31T08:39:32.788Z,57.29
2018-07-31T08:40:32.779Z,57.13
2018-07-31T08:41:32.778Z,57.13
2018-07-31T08:42:32.767Z,56.27
2018-07-31T08:43:32.888Z,56.20
2018-07-31T08:44:32.756Z,55.88
2018-07-31T08:45:32.749Z,56.18
2018-07-31T08:46:32.752Z,56.25
2018-07-31T08:47:32.739Z,57.10
2018-07-31T08:48:32.735Z,57.39
2018-07-31T08:49:32.728Z,57.26
2018-07-31T08:50:32.725Z,57.29
2018-07-31T08:51:32.719Z,57.88
2018-07-31T08:52:32.715Z,57.10
2018-07-31T08:53:32.707Z,57.29
2018-07-31T08:54:32.704Z,57.68
2018-07-31T08:55:32.701Z,57.56
2018-07-31T08:56:32.705Z,57.29
2018-07-31T08:57:32.687Z,57.39
2018-07-31T08:58:32.685Z,57.42
2018-07-31T08:59:32.757Z,56.84
2018-07-31T09:00:32.669Z,56.37
2018-07-31T09:01:32.667Z,54.91
2018-07-31T09:02:32.670Z,55.08
2018-07-31T09:03:32.656Z,54.81
2018-07-31T09:04:32.653Z,55.10
2018-07-31T09:05:32.645Z,54.83
2018-07-31T09:06:32.643Z,53.49
2018-07-31T09:07:32.640Z,51.95
2018-07-31T09:08:32.701Z,51.00
2018-07-31T09:09:32.623Z,50.73
2018-07-31T09:10:32.699Z,50.17
2018-07-31T09:11:32.614Z,49.60
2018-07-31T09:12:32.615Z,48.16
2018-07-31T09:13:32.605Z,46.98
2018-07-31T09:14:32.602Z,47.79
2018-07-31T09:15:32.693Z,47.00
2018-07-31T09:16:32.587Z,47.86
2018-07-31T09:17:32.621Z,48.52
2018-07-31T09:18:32.577Z,49.19
2018-07-31T09:19:32.579Z,48.41
2018-07-31T09:20:32.568Z,48.75
2018-07-31T09:21:32.564Z,49.51
2018-07-31T09:22:32.560Z,49.97
2018-07-31T09:23:32.558Z,49.29
2018-07-31T09:24:32.681Z,50.39
2018-07-31T09:25:32.555Z,49.87
2018-07-31T09:26:32.552Z,50.46
2018-07-31T09:27:32.541Z,51.15
2018-07-31T09:28:32.534Z,51.83
2018-07-31T09:29:32.533Z,52.32
2018-07-31T09:30:32.544Z,52.12
2018-07-31T09:31:32.528Z,51.73
2018-07-31T09:32:32.523Z,51.56
2018-07-31T09:33:32.635Z,50.98
2018-07-31T09:34:32.518Z,50.81
2018-07-31T09:35:32.513Z,50.12
2018-07-31T09:36:32.535Z,49.55
2018-07-31T09:37:32.503Z,48.77
2018-07-31T09:38:32.505Z,50.02
2018-07-31T09:39:32.497Z,50.20
2018-07-31T09:40:32.496Z,50.88
2018-07-31T09:41:32.489Z,50.95
2018-07-31T09:42:32.492Z,52.22
2018-07-31T09:43:32.481Z,52.03
2018-07-31T09:44:32.487Z,51.56
2018-07-31T09:45:32.474Z,50.29
2018-07-31T09:46:32.606Z,49.90
2018-07-31T09:47:32.469Z,49.14
2018-07-31T09:48:32.499Z,47.91
2018-07-31T09:49:32.460Z,47.84
2018-07-31T09:50:32.466Z,46.86
2018-07-31T09:51:32.459Z,47.23
2018-07-31T09:52:32.462Z,47.13
2018-07-31T09:53:32.454Z,48.19
2018-07-31T09:54:32.459Z,48.36
2018-07-31T09:55:32.447Z,49.14
2018-07-31T09:56:32.454Z,49.41
2018-07-31T09:57:32.443Z,49.33
2018-07-31T09:58:32.442Z,48.58
2018-07-31T09:59:32.505Z,48.75
2018-07-31T10:00:32.438Z,48.36
2018-07-31T10:01:32.486Z,48.75
2018-07-31T10:02:32.483Z,47.91
2018-07-31T10:03:32.433Z,46.95
2018-07-31T10:04:32.429Z,46.17
2018-07-31T10:05:32.456Z,45.65
2018-07-31T10:06:32.431Z,44.57
2018-07-31T10:07:32.436Z,43.90
2018-07-31T10:08:32.431Z,43.14
2018-07-31T10:09:32.424Z,43.24
2018-07-31T10:10:32.439Z,41.86
2018-07-31T10:11:32.426Z,41.22
2018-07-31T10:12:32.524Z,39.20
2018-07-31T10:13:32.424Z,39.11
2018-07-31T10:14:32.437Z,39.48
2018-07-31T10:15:32.472Z,40.08
2018-07-31T10:16:32.456Z,40.03
2018-07-31T10:17:32.435Z,39.54
2018-07-31T10:18:32.438Z,39.80
2018-07-31T10:19:32.441Z,40.17
2018-07-31T10:20:32.456Z,40.76
2018-07-31T10:21:32.457Z,41.80
2018-07-31T10:22:32.469Z,43.04
2018-07-31T10:23:32.453Z,43.33
2018-07-31T10:24:32.509Z,44.12
2018-07-31T10:25:32.466Z,44.68
2018-07-31T10:26:32.457Z,44.95
2018-07-31T10:27:32.461Z,44.68
2018-07-31T10:28:32.463Z,43.26
2018-07-31T10:29:32.464Z,43.35
2018-07-31T10:30:32.688Z,42.51
2018-07-31T10:31:32.466Z,41.82
2018-07-31T10:32:32.467Z,41.53
2018-07-31T10:33:32.470Z,41.14
2018-07-31T10:34:32.484Z,41.33
2018-07-31T10:35:32.482Z,39.88
2018-07-31T10:36:32.477Z,39.31
2018-07-31T10:37:32.522Z,39.32
2018-07-31T10:38:32.481Z,40.27
2018-07-31T10:39:32.482Z,41.11
2018-07-31T10:40:32.483Z,42.57
2018-07-31T10:41:32.491Z,42.84
2018-07-31T10:42:32.490Z,42.10
2018-07-31T10:43:32.633Z,41.24
2018-07-31T10:44:32.509Z,40.08
2018-07-31T10:45:32.501Z,39.31
2018-07-31T10:46:32.502Z,39.23
2018-07-31T10:47:32.506Z,39.92
2018-07-31T10:48:32.508Z,40.00
2018-07-31T10:49:32.511Z,40.66
2018-07-31T10:50:32.542Z,42.47
2018-07-31T10:51:32.521Z,43.52
2018-07-31T10:52:32.534Z,43.80
2018-07-31T10:53:32.530Z,44.46
2018-07-31T10:54:32.525Z,45.52
2018-07-31T10:55:32.546Z,45.30
2018-07-31T10:56:32.593Z,45.89
2018-07-31T10:57:32.533Z,45.89
2018-07-31T10:58:32.638Z,45.72
2018-07-31T10:59:32.572Z,45.52
2018-07-31T11:00:32.534Z,44.54
2018-07-31T11:01:35.151Z,44.66
2018-07-31T11:02:32.532Z,44.76
2018-07-31T11:03:32.534Z,44.38
2018-07-31T11:05:17.488Z,43.43
2018-07-31T11:06:17.496Z,43.13
2018-07-31T11:07:17.489Z,43.05
2018-07-31T11:08:17.488Z,42.39
2018-07-31T11:09:17.489Z,42.02
2018-07-31T11:10:17.497Z,41.72
2018-07-31T11:11:17.488Z,41.63
2018-07-31T11:12:17.488Z,41.72
2018-07-31T11:13:17.545Z,41.33
2018-07-31T11:14:17.490Z,41.43
2018-07-31T11:15:17.588Z,41.92
2018-07-31T11:16:17.489Z,41.33
2018-07-31T11:17:17.498Z,41.71
2018-07-31T11:18:17.490Z,42.00
2018-07-31T11:19:17.495Z,42.11
2018-07-31T11:20:17.503Z,40.41
2018-07-31T11:21:17.510Z,40.05
2018-07-31T11:22:17.495Z,39.07
2018-07-31T11:23:17.498Z,39.23
2018-07-31T11:24:17.508Z,39.64
2018-07-31T11:25:17.501Z,39.32
2018-07-31T11:26:17.516Z,40.37
2018-07-31T11:27:17.509Z,42.19
2018-07-31T11:28:17.583Z,42.66
2018-07-31T11:29:17.524Z,43.23
2018-07-31T11:30:17.519Z,42.37
2018-07-31T11:31:17.519Z,41.06
2018-07-31T11:32:17.523Z,40.86
2018-07-31T11:33:17.525Z,40.48
2018-07-31T11:34:17.527Z,39.92
2018-07-31T11:35:17.538Z,39.25
2018-07-31T11:36:17.544Z,39.74
2018-07-31T11:37:17.535Z,39.03
2018-07-31T11:38:17.551Z,39.32
2018-07-31T11:39:17.544Z,40.88
2018-07-31T11:40:17.545Z,40.76
2018-07-31T11:41:17.563Z,40.76
2018-07-31T11:42:17.549Z,40.00
2018-07-31T11:43:17.570Z,39.82
2018-07-31T11:44:17.555Z,39.25
2018-07-31T11:45:17.565Z,39.25
2018-07-31T11:46:17.614Z,37.79
2018-07-31T11:47:17.564Z,36.71
2018-07-31T11:48:17.568Z,36.13
2018-07-31T11:49:17.573Z,35.64
2018-07-31T11:50:17.578Z,36.22
2018-07-31T11:51:17.574Z,36.88
2018-07-31T11:52:17.580Z,36.51
2018-07-31T11:53:17.580Z,36.99
2018-07-31T11:54:17.583Z,37.01
2018-07-31T11:55:17.586Z,37.55
2018-07-31T11:56:17.744Z,38.34
2018-07-31T11:57:17.590Z,38.24
2018-07-31T11:58:17.605Z,38.15
2018-07-31T11:59:17.595Z,38.13
2018-07-31T12:00:17.602Z,38.05
2018-07-31T12:01:17.600Z,37.65
2018-07-31T12:02:17.610Z,36.99
2018-07-31T12:03:17.610Z,36.75
2018-07-31T12:04:17.623Z,37.44
2018-07-31T12:05:17.611Z,36.62
2018-07-31T12:06:17.667Z,37.09
2018-07-31T12:07:17.605Z,37.96
2018-07-31T12:08:17.606Z,38.23
2018-07-31T12:09:17.653Z,38.64
2018-07-31T12:10:17.605Z,38.06
2018-07-31T12:11:17.610Z,37.76
2018-07-31T12:12:17.612Z,38.23
2018-07-31T12:13:17.602Z,38.43
2018-07-31T12:14:17.602Z,38.72
2018-07-31T12:15:17.619Z,38.72
2018-07-31T12:16:17.602Z,38.72
2018-07-31T12:17:17.609Z,38.64
2018-07-31T12:18:17.610Z,38.06
2018-07-31T12:19:17.617Z,38.35
2018-07-31T12:20:17.607Z,38.06
2018-07-31T12:21:17.593Z,38.23
2018-07-31T12:22:17.642Z,38.53
2018-07-31T12:23:17.588Z,38.92
2018-07-31T12:24:17.583Z,39.22
2018-07-31T12:25:17.581Z,39.03
2018-07-31T12:26:17.578Z,38.84
2018-07-31T12:27:17.584Z,38.82
2018-07-31T12:28:17.574Z,38.92
2018-07-31T12:29:17.570Z,39.11
2018-07-31T12:30:17.583Z,39.11
2018-07-31T12:31:17.565Z,39.61
2018-07-31T12:32:17.579Z,39.98
2018-07-31T12:33:17.568Z,39.11
2018-07-31T12:34:17.553Z,39.90
2018-07-31T12:35:17.556Z,39.80
2018-07-31T12:36:17.549Z,39.11
2018-07-31T12:37:17.644Z,39.80
2018-07-31T12:38:17.616Z,40.19
2018-07-31T12:39:17.542Z,40.27
2018-07-31T12:40:17.572Z,40.56
2018-07-31T12:41:17.546Z,40.56
2018-07-31T12:42:17.526Z,40.56
2018-07-31T12:43:17.526Z,40.56
2018-07-31T12:44:17.521Z,40.56
2018-07-31T12:45:17.516Z,40.95
2018-07-31T12:46:17.516Z,41.08
2018-07-31T12:47:17.509Z,40.68
2018-07-31T12:48:17.504Z,40.58
2018-07-31T12:49:17.500Z,40.95
2018-07-31T12:50:17.501Z,41.45
2018-07-31T12:51:17.509Z,41.37
2018-07-31T12:52:17.505Z,40.58
2018-07-31T12:53:17.611Z,40.09
2018-07-31T12:54:17.484Z,40.68
2018-07-31T12:55:17.479Z,40.76
2018-07-31T12:56:17.474Z,41.05
2018-07-31T12:57:17.471Z,40.98